sensor_id;sensor_type;location;lat;lon;timestamp;pressure;altitude;pressure_sealevel;temperature;humidity
65832;BME280;52593;42.648;23.332;2022-11-04T00:01:26;94714.13;;;9.08;74.26
65832;BME280;52593;42.648;23.332;2022-11-04T00:03:52;94704.91;;;9.11;74.28
65832;BME280;52593;42.648;23.332;2022-11-04T00:06:18;94705.94;;;9.10;73.89
65832;BME280;52593;42.648;23.332;2022-11-04T00:08:48;94691.75;;;9.09;74.31
65832;BME280;52593;42.648;23.332;2022-11-04T00:11:14;94698.44;;;9.05;74.19
65832;BME280;52593;42.648;23.332;2022-11-04T00:13:58;94705.25;;;9.08;74.04
65832;BME280;52593;42.648;23.332;2022-11-04T00:16:23;94692.59;;;9.02;74.41
65832;BME280;52593;42.648;23.332;2022-11-04T00:19:07;94700.13;;;8.98;74.65
65832;BME280;52593;42.648;23.332;2022-11-04T00:21:33;94704.97;;;8.95;74.54
65832;BME280;52593;42.648;23.332;2022-11-04T00:24:16;94699.47;;;8.88;74.68
65832;BME280;52593;42.648;23.332;2022-11-04T00:27:00;94691.81;;;8.93;74.69
65832;BME280;52593;42.648;23.332;2022-11-04T00:29:44;94694.63;;;8.83;74.60
65832;BME280;52593;42.648;23.332;2022-11-04T00:32:10;94692.97;;;8.74;75.28
65832;BME280;52593;42.648;23.332;2022-11-04T00:34:54;94689.13;;;8.85;74.38
65832;BME280;52593;42.648;23.332;2022-11-04T00:37:19;94683.66;;;8.62;75.57
65832;BME280;52593;42.648;23.332;2022-11-04T00:39:45;94685.03;;;8.57;76.09
65832;BME280;52593;42.648;23.332;2022-11-04T00:42:10;94699.66;;;8.62;75.94
65832;BME280;52593;42.648;23.332;2022-11-04T00:44:36;94683.66;;;8.62;75.64
65832;BME280;52593;42.648;23.332;2022-11-04T00:47:01;94688.81;;;8.63;75.79
65832;BME280;52593;42.648;23.332;2022-11-04T00:49:26;94680.00;;;8.63;75.99
65832;BME280;52593;42.648;23.332;2022-11-04T00:51:52;94678.50;;;8.60;76.16
65832;BME280;52593;42.648;23.332;2022-11-04T00:54:17;94672.16;;;8.61;75.83
65832;BME280;52593;42.648;23.332;2022-11-04T00:56:42;94667.00;;;8.60;76.17
65832;BME280;52593;42.648;23.332;2022-11-04T00:59:08;94670.16;;;8.63;75.92
65832;BME280;52593;42.648;23.332;2022-11-04T01:01:34;94673.19;;;8.52;76.14
65832;BME280;52593;42.648;23.332;2022-11-04T01:04:00;94669.00;;;8.49;76.41
65832;BME280;52593;42.648;23.332;2022-11-04T01:06:25;94671.66;;;8.49;76.88
65832;BME280;52593;42.648;23.332;2022-11-04T01:08:59;94659.97;;;8.42;76.78
65832;BME280;52593;42.648;23.332;2022-11-04T01:11:25;94670.00;;;8.56;76.38
65832;BME280;52593;42.648;23.332;2022-11-04T01:13:52;94663.00;;;8.55;75.92
65832;BME280;52593;42.648;23.332;2022-11-04T01:16:19;94659.97;;;8.42;76.52
65832;BME280;52593;42.648;23.332;2022-11-04T01:18:44;94654.81;;;8.40;76.69
65832;BME280;52593;42.648;23.332;2022-11-04T01:21:11;94650.81;;;8.28;77.17
65832;BME280;52593;42.648;23.332;2022-11-04T01:23:38;94643.47;;;8.22;77.32
65832;BME280;52593;42.648;23.332;2022-11-04T01:26:05;94642.66;;;8.21;77.29
65832;BME280;52593;42.648;23.332;2022-11-04T01:28:31;94637.00;;;8.16;77.42
65832;BME280;52593;42.648;23.332;2022-11-04T01:30:56;94642.50;;;8.15;77.40
65832;BME280;52593;42.648;23.332;2022-11-04T01:33:22;94640.66;;;8.15;77.97
65832;BME280;52593;42.648;23.332;2022-11-04T01:35:49;94635.34;;;8.07;77.60
65832;BME280;52593;42.648;23.332;2022-11-04T01:38:15;94635.31;;;8.15;77.55
65832;BME280;52593;42.648;23.332;2022-11-04T01:40:40;94636.31;;;8.14;77.52
65832;BME280;52593;42.648;23.332;2022-11-04T01:43:14;94638.84;;;8.24;77.39
65832;BME280;52593;42.648;23.332;2022-11-04T01:45:43;94626.00;;;8.19;76.79
65832;BME280;52593;42.648;23.332;2022-11-04T01:48:17;94636.50;;;8.29;76.98
65832;BME280;52593;42.648;23.332;2022-11-04T01:50:47;94624.00;;;8.21;76.45
65832;BME280;52593;42.648;23.332;2022-11-04T01:55:51;94632.50;;;8.09;77.67
65832;BME280;52593;42.648;23.332;2022-11-04T01:58:19;94627.31;;;7.99;78.15
65832;BME280;52593;42.648;23.332;2022-11-04T02:00:46;94629.81;;;8.00;77.91
65832;BME280;52593;42.648;23.332;2022-11-04T02:03:15;94636.81;;;8.01;77.72
65832;BME280;52593;42.648;23.332;2022-11-04T02:05:41;94640.16;;;7.95;77.99
65832;BME280;52593;42.648;23.332;2022-11-04T02:08:08;94623.50;;;7.93;78.36
65832;BME280;52593;42.648;23.332;2022-11-04T02:10:34;94618.00;;;7.95;78.52
65832;BME280;52593;42.648;23.332;2022-11-04T02:13:02;94615.00;;;7.90;78.29
65832;BME280;52593;42.648;23.332;2022-11-04T02:32:28;94603.34;;;7.91;78.98
65832;BME280;52593;42.648;23.332;2022-11-04T02:35:04;94615.84;;;7.90;79.11
65832;BME280;52593;42.648;23.332;2022-11-04T02:40:51;94615.66;;;8.00;78.71
65832;BME280;52593;42.648;23.332;2022-11-04T02:43:21;94616.63;;;7.82;79.21
65832;BME280;52593;42.648;23.332;2022-11-04T02:46:00;94596.84;;;7.85;79.69
65832;BME280;52593;42.648;23.332;2022-11-04T02:48:32;94603.16;;;7.84;79.55
65832;BME280;52593;42.648;23.332;2022-11-04T02:51:23;94601.34;;;7.93;79.14
65832;BME280;52593;42.648;23.332;2022-11-04T02:54:10;94609.84;;;7.80;79.88
65832;BME280;52593;42.648;23.332;2022-11-04T02:56:42;94607.66;;;7.75;79.92
65832;BME280;52593;42.648;23.332;2022-11-04T02:59:14;94604.81;;;7.60;80.18
65832;BME280;52593;42.648;23.332;2022-11-04T03:01:45;94599.16;;;7.63;80.75
65832;BME280;52593;42.648;23.332;2022-11-04T03:04:19;94607.31;;;7.62;80.52
65832;BME280;52593;42.648;23.332;2022-11-04T03:06:47;94604.47;;;7.63;81.14
65832;BME280;52593;42.648;23.332;2022-11-04T03:09:15;94606.97;;;7.57;81.12
65832;BME280;52593;42.648;23.332;2022-11-04T03:11:44;94599.66;;;7.59;81.15
65832;BME280;52593;42.648;23.332;2022-11-04T03:14:26;94596.97;;;7.50;80.80
65832;BME280;52593;42.648;23.332;2022-11-04T03:17:00;94606.00;;;7.66;80.50
65832;BME280;52593;42.648;23.332;2022-11-04T03:19:59;94596.13;;;7.50;81.04
65832;BME280;52593;42.648;23.332;2022-11-04T03:22:29;94600.78;;;7.48;81.14
65832;BME280;52593;42.648;23.332;2022-11-04T03:24:57;94605.44;;;7.46;81.58
65832;BME280;52593;42.648;23.332;2022-11-04T03:30:03;94610.56;;;7.31;81.81
65832;BME280;52593;42.648;23.332;2022-11-04T03:35:02;94603.88;;;7.27;82.43
65832;BME280;52593;42.648;23.332;2022-11-04T03:37:27;94602.75;;;7.29;82.65
65832;BME280;52593;42.648;23.332;2022-11-04T03:39:53;94611.22;;;7.25;82.53
65832;BME280;52593;42.648;23.332;2022-11-04T03:42:20;94600.25;;;7.28;82.98
65832;BME280;52593;42.648;23.332;2022-11-04T03:44:49;94608.19;;;7.20;82.57
65832;BME280;52593;42.648;23.332;2022-11-04T03:47:17;94598.88;;;7.16;83.57
65832;BME280;52593;42.648;23.332;2022-11-04T03:49:47;94599.41;;;7.27;82.28
65832;BME280;52593;42.648;23.332;2022-11-04T03:52:14;94593.94;;;7.29;82.37
65832;BME280;52593;42.648;23.332;2022-11-04T03:54:40;94579.91;;;7.19;82.56
65832;BME280;52593;42.648;23.332;2022-11-04T04:00:21;94588.56;;;7.21;83.46
65832;BME280;52593;42.648;23.332;2022-11-04T04:03:10;94592.84;;;7.05;83.80
65832;BME280;52593;42.648;23.332;2022-11-04T04:18:51;94586.78;;;6.87;84.88
65832;BME280;52593;42.648;23.332;2022-11-04T04:21:21;94594.59;;;6.88;84.96
65832;BME280;52593;42.648;23.332;2022-11-04T04:23:49;94589.09;;;6.82;84.89
65832;BME280;52593;42.648;23.332;2022-11-04T04:26:36;94582.78;;;6.83;84.48
65832;BME280;52593;42.648;23.332;2022-11-04T04:29:23;94579.16;;;6.92;84.73
65832;BME280;52593;42.648;23.332;2022-11-04T04:31:50;94580.00;;;6.92;84.12
65832;BME280;52593;42.648;23.332;2022-11-04T04:34:24;94586.94;;;6.77;85.20
65832;BME280;52593;42.648;23.332;2022-11-04T04:37:01;94587.09;;;6.84;84.75
65832;BME280;52593;42.648;23.332;2022-11-04T04:39:43;94575.97;;;6.80;84.94
65832;BME280;52593;42.648;23.332;2022-11-04T04:42:34;94590.88;;;6.73;84.62
65832;BME280;52593;42.648;23.332;2022-11-04T04:47:56;94589.03;;;6.73;85.30
65832;BME280;52593;42.648;23.332;2022-11-04T04:50:22;94581.78;;;6.84;84.94
65832;BME280;52593;42.648;23.332;2022-11-04T04:52:51;94595.88;;;6.76;84.73
65832;BME280;52593;42.648;23.332;2022-11-04T04:55:17;94592.41;;;6.75;85.43
65832;BME280;52593;42.648;23.332;2022-11-04T04:57:43;94578.22;;;6.67;85.75
65832;BME280;52593;42.648;23.332;2022-11-04T05:00:13;94584.34;;;6.59;85.53
65832;BME280;52593;42.648;23.332;2022-11-04T05:02:39;94588.69;;;6.68;85.94
65832;BME280;52593;42.648;23.332;2022-11-04T05:05:05;94595.00;;;6.67;85.54
65832;BME280;52593;42.648;23.332;2022-11-04T05:07:30;94582.63;;;6.84;84.96
65832;BME280;52593;42.648;23.332;2022-11-04T05:09:56;94589.53;;;6.69;84.72
65832;BME280;52593;42.648;23.332;2022-11-04T05:12:22;94596.84;;;6.67;86.33
65832;BME280;52593;42.648;23.332;2022-11-04T05:14:47;94590.16;;;6.63;85.78
65832;BME280;52593;42.648;23.332;2022-11-04T05:17:13;94603.28;;;6.64;86.61
65832;BME280;52593;42.648;23.332;2022-11-04T05:19:39;94593.06;;;6.77;85.59
65832;BME280;52593;42.648;23.332;2022-11-04T05:22:04;94600.53;;;6.74;85.37
65832;BME280;52593;42.648;23.332;2022-11-04T05:24:29;94595.88;;;6.76;85.67
65832;BME280;52593;42.648;23.332;2022-11-04T05:26:55;94600.56;;;6.82;85.59
65832;BME280;52593;42.648;23.332;2022-11-04T05:29:20;94600.09;;;6.87;85.38
65832;BME280;52593;42.648;23.332;2022-11-04T05:31:46;94594.25;;;6.83;85.25
65832;BME280;52593;42.648;23.332;2022-11-04T05:34:12;94606.38;;;6.86;85.87
65832;BME280;52593;42.648;23.332;2022-11-04T05:36:37;94597.75;;;6.84;85.75
65832;BME280;52593;42.648;23.332;2022-11-04T05:39:03;94608.06;;;6.87;85.82
65832;BME280;52593;42.648;23.332;2022-11-04T05:41:29;94617.19;;;6.84;86.57
65832;BME280;52593;42.648;23.332;2022-11-04T05:43:57;94609.59;;;6.97;87.24
65832;BME280;52593;42.648;23.332;2022-11-04T05:46:23;94611.16;;;7.08;86.35
65832;BME280;52593;42.648;23.332;2022-11-04T05:48:49;94623.81;;;7.23;86.49
65832;BME280;52593;42.648;23.332;2022-11-04T05:51:17;94620.88;;;7.34;85.39
65832;BME280;52593;42.648;23.332;2022-11-04T05:53:43;94616.88;;;7.30;85.28
65832;BME280;52593;42.648;23.332;2022-11-04T05:56:09;94619.22;;;7.33;86.06
65832;BME280;52593;42.648;23.332;2022-11-04T05:58:34;94631.91;;;7.47;84.97
65832;BME280;52593;42.648;23.332;2022-11-04T06:01:52;94626.75;;;7.46;85.00
65832;BME280;52593;42.648;23.332;2022-11-04T06:04:13;94627.41;;;7.48;85.44
65832;BME280;52593;42.648;23.332;2022-11-04T06:06:39;94620.44;;;7.63;84.14
65832;BME280;52593;42.648;23.332;2022-11-04T06:09:04;94635.94;;;7.68;84.55
65832;BME280;52593;42.648;23.332;2022-11-04T06:11:31;94628.81;;;7.85;83.73
65832;BME280;52593;42.648;23.332;2022-11-04T06:13:57;94632.47;;;7.84;83.34
65832;BME280;52593;42.648;23.332;2022-11-04T06:16:23;94622.81;;;7.83;83.27
65832;BME280;52593;42.648;23.332;2022-11-04T06:18:49;94629.31;;;7.89;83.26
65832;BME280;52593;42.648;23.332;2022-11-04T06:23:41;94620.31;;;7.90;83.42
65832;BME280;52593;42.648;23.332;2022-11-04T06:26:07;94623.84;;;7.90;83.03
65832;BME280;52593;42.648;23.332;2022-11-04T06:28:33;94627.47;;;7.97;83.25
65832;BME280;52593;42.648;23.332;2022-11-04T06:31:00;94619.00;;;8.18;83.03
65832;BME280;52593;42.648;23.332;2022-11-04T06:33:26;94627.47;;;8.22;82.34
65832;BME280;52593;42.648;23.332;2022-11-04T06:35:55;94618.50;;;8.23;82.83
65832;BME280;52593;42.648;23.332;2022-11-04T06:38:21;94622.16;;;8.30;82.39
65832;BME280;52593;42.648;23.332;2022-11-04T06:40:46;94627.81;;;8.35;83.00
65832;BME280;52593;42.648;23.332;2022-11-04T06:43:12;94634.16;;;8.43;82.30
65832;BME280;52593;42.648;23.332;2022-11-04T06:45:37;94631.19;;;8.46;82.26
65832;BME280;52593;42.648;23.332;2022-11-04T06:48:02;94635.34;;;8.56;82.29
65832;BME280;52593;42.648;23.332;2022-11-04T06:50:28;94625.50;;;8.65;81.42
65832;BME280;52593;42.648;23.332;2022-11-04T06:52:53;94639.00;;;8.64;81.77
65832;BME280;52593;42.648;23.332;2022-11-04T06:55:19;94620.16;;;8.65;81.83
65832;BME280;52593;42.648;23.332;2022-11-04T06:57:44;94627.31;;;8.73;81.64
65832;BME280;52593;42.648;23.332;2022-11-04T07:00:10;94620.78;;;8.75;81.94
65832;BME280;52593;42.648;23.332;2022-11-04T07:02:35;94619.31;;;8.73;81.47
65832;BME280;52593;42.648;23.332;2022-11-04T07:05:02;94621.28;;;8.79;81.67
65832;BME280;52593;42.648;23.332;2022-11-04T07:07:29;94621.91;;;8.89;81.21
65832;BME280;52593;42.648;23.332;2022-11-04T07:09:54;94614.59;;;8.91;81.53
65832;BME280;52593;42.648;23.332;2022-11-04T07:12:20;94622.34;;;9.09;81.05
65832;BME280;52593;42.648;23.332;2022-11-04T07:14:46;94617.81;;;9.18;80.39
65832;BME280;52593;42.648;23.332;2022-11-04T07:17:12;94616.91;;;9.34;79.87
65832;BME280;52593;42.648;23.332;2022-11-04T07:19:37;94607.88;;;9.35;79.71
65832;BME280;52593;42.648;23.332;2022-11-04T07:22:03;94592.06;;;9.57;78.62
65832;BME280;52593;42.648;23.332;2022-11-04T07:24:28;94598.09;;;9.59;78.63
65832;BME280;52593;42.648;23.332;2022-11-04T07:26:54;94590.78;;;9.53;79.26
65832;BME280;52593;42.648;23.332;2022-11-04T07:29:20;94588.56;;;9.56;78.94
65832;BME280;52593;42.648;23.332;2022-11-04T07:31:45;94599.53;;;9.70;78.79
65832;BME280;52593;42.648;23.332;2022-11-04T07:34:11;94593.38;;;9.92;77.83
65832;BME280;52593;42.648;23.332;2022-11-04T07:36:36;94594.59;;;10.05;77.32
65832;BME280;52593;42.648;23.332;2022-11-04T07:39:02;94589.00;;;10.14;76.84
65832;BME280;52593;42.648;23.332;2022-11-04T07:41:28;94578.41;;;10.21;76.74
65832;BME280;52593;42.648;23.332;2022-11-04T07:43:53;94578.53;;;10.28;76.09
65832;BME280;52593;42.648;23.332;2022-11-04T07:46:19;94575.69;;;10.29;75.99
65832;BME280;52593;42.648;23.332;2022-11-04T07:48:45;94589.00;;;10.38;75.46
65832;BME280;52593;42.648;23.332;2022-11-04T07:51:13;94582.28;;;10.42;75.66
65832;BME280;52593;42.648;23.332;2022-11-04T07:53:40;94582.28;;;10.42;75.52
65832;BME280;52593;42.648;23.332;2022-11-04T07:56:08;94571.97;;;10.53;75.47
65832;BME280;52593;42.648;23.332;2022-11-04T07:58:36;94585.16;;;10.55;75.86
65832;BME280;52593;42.648;23.332;2022-11-04T08:01:07;94576.22;;;10.63;75.30
65832;BME280;52593;42.648;23.332;2022-11-04T08:03:33;94570.22;;;10.76;74.93
65832;BME280;52593;42.648;23.332;2022-11-04T08:06:01;94564.78;;;10.84;74.15
65832;BME280;52593;42.648;23.332;2022-11-04T08:08:27;94564.41;;;10.87;74.25
65832;BME280;52593;42.648;23.332;2022-11-04T08:10:58;94569.69;;;10.95;74.79
65832;BME280;52593;42.648;23.332;2022-11-04T08:13:32;94561.34;;;11.05;74.08
65832;BME280;52593;42.648;23.332;2022-11-04T08:16:06;94557.19;;;11.02;74.23
65832;BME280;52593;42.648;23.332;2022-11-04T08:18:34;94554.25;;;11.12;73.92
65832;BME280;52593;42.648;23.332;2022-11-04T08:21:00;94545.72;;;11.23;73.37
65832;BME280;52593;42.648;23.332;2022-11-04T08:23:26;94542.09;;;11.31;73.22
65832;BME280;52593;42.648;23.332;2022-11-04T08:25:52;94535.56;;;11.34;72.85
65832;BME280;52593;42.648;23.332;2022-11-04T08:28:17;94531.78;;;11.50;72.20
65832;BME280;52593;42.648;23.332;2022-11-04T08:30:56;94546.50;;;11.54;72.27
65832;BME280;52593;42.648;23.332;2022-11-04T08:33:23;94539.47;;;11.53;71.93
65832;BME280;52593;42.648;23.332;2022-11-04T08:35:48;94531.50;;;11.59;71.73
65832;BME280;52593;42.648;23.332;2022-11-04T08:38:14;94528.13;;;11.72;70.47
65832;BME280;52593;42.648;23.332;2022-11-04T08:40:40;94529.47;;;11.83;70.04
65832;BME280;52593;42.648;23.332;2022-11-04T08:43:05;94515.47;;;11.88;69.89
65832;BME280;52593;42.648;23.332;2022-11-04T08:45:32;94533.22;;;11.89;70.30
65832;BME280;52593;42.648;23.332;2022-11-04T08:47:58;94523.06;;;11.99;69.66
65832;BME280;52593;42.648;23.332;2022-11-04T08:50:23;94527.38;;;12.00;69.80
65832;BME280;52593;42.648;23.332;2022-11-04T08:52:52;94511.00;;;12.17;69.41
65832;BME280;52593;42.648;23.332;2022-11-04T08:55:18;94504.28;;;12.27;69.02
65832;BME280;52593;42.648;23.332;2022-11-04T08:57:43;94511.41;;;12.42;68.27
65832;BME280;52593;42.648;23.332;2022-11-04T09:00:09;94510.19;;;12.44;68.01
65832;BME280;52593;42.648;23.332;2022-11-04T09:02:35;94505.31;;;12.55;68.21
65832;BME280;52593;42.648;23.332;2022-11-04T09:05:00;94505.41;;;12.68;67.70
65832;BME280;52593;42.648;23.332;2022-11-04T09:07:26;94501.38;;;12.92;66.08
65832;BME280;52593;42.648;23.332;2022-11-04T09:09:51;94503.91;;;13.00;66.39
65832;BME280;52593;42.648;23.332;2022-11-04T09:12:17;94490.06;;;13.03;66.57
65832;BME280;52593;42.648;23.332;2022-11-04T09:14:42;94483.97;;;13.30;65.37
65832;BME280;52593;42.648;23.332;2022-11-04T09:17:07;94483.59;;;13.40;64.25
65832;BME280;52593;42.648;23.332;2022-11-04T09:19:33;94482.56;;;13.34;65.02
65832;BME280;52593;42.648;23.332;2022-11-04T09:21:58;94477.66;;;13.58;63.36
65832;BME280;52593;42.648;23.332;2022-11-04T09:24:24;94479.75;;;13.82;62.84
65832;BME280;52593;42.648;23.332;2022-11-04T09:26:49;94476.47;;;14.00;61.50
65832;BME280;52593;42.648;23.332;2022-11-04T09:29:14;94473.16;;;14.12;61.48
65832;BME280;52593;42.648;23.332;2022-11-04T09:31:40;94453.28;;;14.19;60.88
65832;BME280;52593;42.648;23.332;2022-11-04T09:34:07;94470.66;;;14.30;60.85
65832;BME280;52593;42.648;23.332;2022-11-04T09:36:32;94449.72;;;14.66;59.77
65832;BME280;52593;42.648;23.332;2022-11-04T09:38:58;94449.53;;;14.67;58.39
65832;BME280;52593;42.648;23.332;2022-11-04T09:46:45;94447.53;;;14.94;58.16
65832;BME280;52593;42.648;23.332;2022-11-04T09:49:13;94430.59;;;14.87;57.01
65832;BME280;52593;42.648;23.332;2022-11-04T09:51:42;94425.94;;;15.08;56.24
65832;BME280;52593;42.648;23.332;2022-11-04T09:54:19;94419.81;;;15.32;55.45
65832;BME280;52593;42.648;23.332;2022-11-04T09:56:48;94410.59;;;15.47;55.00
65832;BME280;52593;42.648;23.332;2022-11-04T09:59:19;94411.38;;;15.54;54.91
65832;BME280;52593;42.648;23.332;2022-11-04T10:27:20;94371.06;;;16.16;52.43
65832;BME280;52593;42.648;23.332;2022-11-04T10:29:53;94362.22;;;15.84;53.51
65832;BME280;52593;42.648;23.332;2022-11-04T10:32:25;94353.22;;;16.15;54.11
65832;BME280;52593;42.648;23.332;2022-11-04T10:34:59;94348.00;;;15.95;53.82
65832;BME280;52593;42.648;23.332;2022-11-04T10:37:27;94345.66;;;16.24;53.74
65832;BME280;52593;42.648;23.332;2022-11-04T10:40:00;94335.53;;;16.56;52.30
65832;BME280;52593;42.648;23.332;2022-11-04T10:42:30;94340.78;;;16.88;51.48
65832;BME280;52593;42.648;23.332;2022-11-04T10:44:56;94331.94;;;17.11;50.12
65832;BME280;52593;42.648;23.332;2022-11-04T10:50:26;94317.91;;;16.91;50.63
65832;BME280;52593;42.648;23.332;2022-11-04T10:53:19;94308.94;;;16.90;50.36
65832;BME280;52593;42.648;23.332;2022-11-04T10:58:24;94307.34;;;17.01;50.37
65832;BME280;52593;42.648;23.332;2022-11-04T11:00:52;94294.91;;;17.00;50.18
65832;BME280;52593;42.648;23.332;2022-11-04T11:03:26;94284.22;;;16.56;51.24
65832;BME280;52593;42.648;23.332;2022-11-04T11:05:53;94292.47;;;16.43;52.58
65832;BME280;52593;42.648;23.332;2022-11-04T11:08:33;94286.06;;;16.74;51.08
65832;BME280;52593;42.648;23.332;2022-11-04T11:11:01;94274.31;;;16.99;50.85
65832;BME280;52593;42.648;23.332;2022-11-04T11:13:37;94276.44;;;17.09;50.33
65832;BME280;52593;42.648;23.332;2022-11-04T11:18:30;94263.50;;;16.99;50.41
65832;BME280;52593;42.648;23.332;2022-11-04T11:21:08;94259.63;;;17.61;48.72
65832;BME280;52593;42.648;23.332;2022-11-04T11:26:11;94247.75;;;18.09;47.44
65832;BME280;52593;42.648;23.332;2022-11-04T11:28:38;94237.50;;;17.64;47.86
65832;BME280;52593;42.648;23.332;2022-11-04T11:31:10;94232.66;;;17.42;49.42
65832;BME280;52593;42.648;23.332;2022-11-04T11:33:47;94237.94;;;17.14;49.79
65832;BME280;52593;42.648;23.332;2022-11-04T11:36:20;94222.31;;;17.39;49.29
65832;BME280;52593;42.648;23.332;2022-11-04T11:41:18;94209.16;;;17.55;48.09
65832;BME280;52593;42.648;23.332;2022-11-04T11:43:51;94205.97;;;17.58;48.21
65832;BME280;52593;42.648;23.332;2022-11-04T11:46:22;94211.75;;;17.97;46.30
65832;BME280;52593;42.648;23.332;2022-11-04T11:48:53;94203.13;;;17.88;47.06
65832;BME280;52593;42.648;23.332;2022-11-04T11:51:24;94190.34;;;17.95;47.24
65832;BME280;52593;42.648;23.332;2022-11-04T11:54:20;94186.59;;;17.96;46.63
65832;BME280;52593;42.648;23.332;2022-11-04T11:56:50;94187.84;;;17.82;47.09
65832;BME280;52593;42.648;23.332;2022-11-04T12:04:43;94180.47;;;17.30;47.46
65832;BME280;52593;42.648;23.332;2022-11-04T12:07:28;94172.19;;;17.01;49.12
65832;BME280;52593;42.648;23.332;2022-11-04T12:10:38;94169.50;;;17.13;48.73
65832;BME280;52593;42.648;23.332;2022-11-04T12:21:14;94172.91;;;17.08;48.15
65832;BME280;52593;42.648;23.332;2022-11-04T12:23:51;94173.38;;;17.05;48.54
65832;BME280;52593;42.648;23.332;2022-11-04T12:40:25;94149.31;;;17.51;48.24
65832;BME280;52593;42.648;23.332;2022-11-04T12:56:38;94132.22;;;17.98;46.96
65832;BME280;52593;42.648;23.332;2022-11-04T13:01:57;94141.13;;;17.87;46.75
65832;BME280;52593;42.648;23.332;2022-11-04T13:07:29;94131.31;;;17.57;47.71
65832;BME280;52593;42.648;23.332;2022-11-04T13:09:59;94135.19;;;17.37;48.77
65832;BME280;52593;42.648;23.332;2022-11-04T13:12:36;94132.16;;;17.34;48.42
65832;BME280;52593;42.648;23.332;2022-11-04T13:17:34;94143.06;;;17.27;48.48
65832;BME280;52593;42.648;23.332;2022-11-04T13:20:16;94135.22;;;17.14;48.67
65832;BME280;52593;42.648;23.332;2022-11-04T13:22:47;94146.81;;;17.02;49.46
65832;BME280;52593;42.648;23.332;2022-11-04T13:25:33;94136.47;;;16.99;48.90
65832;BME280;52593;42.648;23.332;2022-11-04T13:28:02;94131.06;;;16.87;49.25
65832;BME280;52593;42.648;23.332;2022-11-04T13:38:56;94140.50;;;18.49;45.04
65832;BME280;52593;42.648;23.332;2022-11-04T13:44:11;94134.03;;;18.09;46.67
65832;BME280;52593;42.648;23.332;2022-11-04T13:46:39;94131.88;;;17.82;47.04
65832;BME280;52593;42.648;23.332;2022-11-04T13:51:44;94135.53;;;17.53;47.67
65832;BME280;52593;42.648;23.332;2022-11-04T13:57:17;94122.38;;;17.09;49.88
65832;BME280;52593;42.648;23.332;2022-11-04T14:00:06;94121.78;;;17.07;49.98
65832;BME280;52593;42.648;23.332;2022-11-04T14:02:46;94132.81;;;16.93;50.70
65832;BME280;52593;42.648;23.332;2022-11-04T14:10:43;94127.09;;;17.25;51.19
65832;BME280;52593;42.648;23.332;2022-11-04T14:16:04;94120.50;;;17.33;49.56
65832;BME280;52593;42.648;23.332;2022-11-04T14:21:10;94131.06;;;16.99;50.44
65832;BME280;52593;42.648;23.332;2022-11-04T14:23:38;94119.19;;;16.88;51.59
65832;BME280;52593;42.648;23.332;2022-11-04T14:26:16;94127.84;;;16.79;51.73
65832;BME280;52593;42.648;23.332;2022-11-04T14:28:44;94144.38;;;16.70;52.16
65832;BME280;52593;42.648;23.332;2022-11-04T14:31:13;94122.91;;;16.75;52.28
65832;BME280;52593;42.648;23.332;2022-11-04T14:33:57;94121.97;;;16.70;51.74
65832;BME280;52593;42.648;23.332;2022-11-04T14:44:29;94124.41;;;16.17;53.11
65832;BME280;52593;42.648;23.332;2022-11-04T14:47:00;94122.28;;;16.19;52.61
65832;BME280;52593;42.648;23.332;2022-11-04T14:52:05;94123.13;;;16.01;53.21
65832;BME280;52593;42.648;23.332;2022-11-04T14:54:37;94123.91;;;15.90;53.88
65832;BME280;52593;42.648;23.332;2022-11-04T14:57:17;94121.06;;;16.03;53.32
65832;BME280;52593;42.648;23.332;2022-11-04T14:59:43;94097.06;;;15.77;54.31
65832;BME280;52593;42.648;23.332;2022-11-04T15:02:17;94110.13;;;15.61;55.59
65832;BME280;52593;42.648;23.332;2022-11-04T15:04:46;94091.38;;;15.48;55.89
65832;BME280;52593;42.648;23.332;2022-11-04T15:07:40;94100.00;;;15.38;56.59
65832;BME280;52593;42.648;23.332;2022-11-04T15:10:22;94102.03;;;15.24;56.49
65832;BME280;52593;42.648;23.332;2022-11-04T15:12:49;94095.75;;;15.30;56.77
65832;BME280;52593;42.648;23.332;2022-11-04T15:15:29;94103.19;;;15.10;57.51
65832;BME280;52593;42.648;23.332;2022-11-04T15:18:01;94103.16;;;14.91;58.18
65832;BME280;52593;42.648;23.332;2022-11-04T15:20:30;94102.84;;;14.81;59.05
65832;BME280;52593;42.648;23.332;2022-11-04T15:22:59;94104.69;;;14.80;58.77
65832;BME280;52593;42.648;23.332;2022-11-04T15:25:24;94104.88;;;14.60;59.88
65832;BME280;52593;42.648;23.332;2022-11-04T15:27:50;94104.13;;;14.47;59.98
65832;BME280;52593;42.648;23.332;2022-11-04T15:30:26;94098.72;;;14.47;60.14
65832;BME280;52593;42.648;23.332;2022-11-04T15:32:57;94103.53;;;14.44;60.06
65832;BME280;52593;42.648;23.332;2022-11-04T15:35:25;94104.69;;;14.23;60.78
65832;BME280;52593;42.648;23.332;2022-11-04T15:37:52;94110.94;;;14.17;61.08
65832;BME280;52593;42.648;23.332;2022-11-04T15:40:18;94113.03;;;14.15;60.03
65832;BME280;52593;42.648;23.332;2022-11-04T15:42:45;94120.41;;;14.26;60.15
65832;BME280;52593;42.648;23.332;2022-11-04T15:51:15;94115.97;;;14.07;60.35
65832;BME280;52593;42.648;23.332;2022-11-04T15:56:16;94111.00;;;14.04;61.19
65832;BME280;52593;42.648;23.332;2022-11-04T15:58:43;94114.41;;;13.93;61.76
65832;BME280;52593;42.648;23.332;2022-11-04T16:01:12;94113.00;;;13.83;61.93
65832;BME280;52593;42.648;23.332;2022-11-04T16:03:39;94118.16;;;13.78;61.97
65832;BME280;52593;42.648;23.332;2022-11-04T16:06:07;94112.38;;;13.81;61.71
65832;BME280;52593;42.648;23.332;2022-11-04T16:08:33;94118.03;;;13.66;62.61
65832;BME280;52593;42.648;23.332;2022-11-04T16:13:36;94123.03;;;13.56;62.78
65832;BME280;52593;42.648;23.332;2022-11-04T16:18:38;94123.03;;;13.56;62.36
65832;BME280;52593;42.648;23.332;2022-11-04T16:21:10;94120.81;;;13.46;62.42
65832;BME280;52593;42.648;23.332;2022-11-04T16:23:43;94123.28;;;13.41;62.75